Time;durP1;ratioP1;P1;durP2;ratioP2;P2;SDS_P1;SDS_P2;PMS_P1;PMS_P2;Temp;Humidity;BMP_temperature;BMP_pressure;BME280_temperature;BME280_humidity;BME280_pressure;Samples;Min_cycle;Max_cycle;Signal;HPM_P1;HPM_P2
2022/09/10 00:01:14;;;;;;;11.52;10.38;;;14.80;99.90;;;;;;5020781;28;88422;-30
2022/09/10 00:03:42;;;;;;;11.75;10.65;;;14.80;99.90;;;;;;5021189;27;89446;-32
2022/09/10 00:06:08;;;;;;;10.60;9.00;;;14.80;99.90;;;;;;5020647;27;89396;-30
2022/09/10 00:08:34;;;;;;;18.98;11.20;;;14.90;99.90;;;;;;5021803;27;89998;-29
2022/09/10 00:11:05;;;;;;;11.15;10.00;;;14.80;99.90;;;;;;5021733;28;89175;-32
2022/09/10 00:13:32;;;;;;;13.35;9.65;;;14.80;99.90;;;;;;5021217;28;90166;-35
2022/09/10 00:16:01;;;;;;;13.63;11.07;;;14.90;99.90;;;;;;5022166;27;89699;-32
2022/09/10 00:18:28;;;;;;;11.27;10.07;;;14.80;99.90;;;;;;5021159;28;90169;-30
2022/09/10 00:20:55;;;;;;;13.15;11.85;;;14.80;99.90;;;;;;5020807;27;88050;-32
2022/09/10 00:23:24;;;;;;;12.80;10.93;;;14.90;99.90;;;;;;5020569;28;90378;-32
2022/09/10 00:25:52;;;;;;;11.88;10.63;;;14.80;99.90;;;;;;5018998;28;91203;-32
2022/09/10 00:28:18;;;;;;;13.30;11.47;;;14.90;99.90;;;;;;5020321;27;91289;-30
2022/09/10 00:30:46;;;;;;;13.07;11.55;;;14.90;99.90;;;;;;5020636;27;88117;-30
2022/09/10 00:33:12;;;;;;;10.70;9.70;;;14.90;99.90;;;;;;5020863;27;90096;-35
2022/09/10 00:35:39;;;;;;;13.27;11.88;;;14.90;99.90;;;;;;5021727;27;88669;-34
2022/09/10 00:38:05;;;;;;;12.07;10.82;;;14.90;99.90;;;;;;5055220;22;90717;-31
2022/09/10 00:40:31;;;;;;;14.13;12.68;;;14.90;99.90;;;;;;5020020;27;88959;-32
2022/09/10 00:42:57;;;;;;;14.15;11.90;;;14.90;99.90;;;;;;5019942;28;89280;-30
2022/09/10 00:45:28;;;;;;;14.43;11.85;;;14.90;99.90;;;;;;5020281;27;89859;-34
2022/09/10 00:47:58;;;;;;;11.68;10.48;;;15.00;99.90;;;;;;5020755;27;89687;-30
2022/09/10 00:50:37;;;;;;;12.73;11.43;;;14.90;99.90;;;;;;5019749;27;90043;-31
2022/09/10 00:53:04;;;;;;;;;;;14.90;99.90;;;;;;5021202;27;90095;-31
2022/09/10 00:55:33;;;;;;;12.02;9.98;;;14.90;99.90;;;;;;5021502;28;90230;-32
2022/09/10 00:58:01;;;;;;;14.40;12.85;;;14.90;99.90;;;;;;5019985;27;89611;-31
2022/09/10 01:00:27;;;;;;;14.33;12.83;;;15.00;99.90;;;;;;5019769;27;89827;-33
2022/09/10 01:02:53;;;;;;;14.50;13.10;;;14.90;99.90;;;;;;5019939;28;90422;-31
2022/09/10 01:05:20;;;;;;;22.70;13.35;;;14.90;99.90;;;;;;5019384;28;89710;-34
2022/09/10 01:07:47;;;;;;;17.33;14.25;;;14.90;99.90;;;;;;5020649;28;89709;-33
2022/09/10 01:10:20;;;;;;;18.48;13.35;;;14.90;99.90;;;;;;5020426;27;90182;-31
2022/09/10 01:13:07;;;;;;;14.55;12.43;;;14.90;99.90;;;;;;5019595;27;90805;-30
2022/09/10 01:16:19;;;;;;;14.10;12.50;;;14.90;99.90;;;;;;5018986;28;90676;-32
2022/09/10 01:19:18;;;;;;;18.00;13.52;;;14.90;99.90;;;;;;5018038;28;91497;-32
2022/09/10 01:22:06;;;;;;;13.38;11.65;;;14.90;99.90;;;;;;5020627;28;89181;-30
2022/09/10 01:24:52;;;;;;;14.35;12.35;;;14.90;99.90;;;;;;5019661;28;90215;-34
2022/09/10 01:27:49;;;;;;;14.20;12.90;;;14.90;99.90;;;;;;5019649;27;90288;-33
2022/09/10 01:30:19;;;;;;;14.30;12.30;;;14.90;99.90;;;;;;5018376;28;89196;-34
2022/09/10 01:33:03;;;;;;;14.20;12.25;;;15.00;99.90;;;;;;5019261;28;89375;-32
2022/09/10 01:35:49;;;;;;;15.02;11.98;;;15.00;99.90;;;;;;5019870;27;90179;-31
2022/09/10 01:38:31;;;;;;;14.57;13.07;;;15.00;99.90;;;;;;5019057;27;90232;-33
2022/09/10 01:40:57;;;;;;;17.23;15.30;;;15.00;99.90;;;;;;5019243;27;90200;-33
2022/09/10 01:43:23;;;;;;;16.42;11.65;;;15.00;99.90;;;;;;5019520;27;89575;-31
2022/09/10 01:46:02;;;;;;;16.60;13.27;;;15.00;99.90;;;;;;5019068;28;89956;-32
2022/09/10 01:48:49;;;;;;;18.38;13.57;;;15.00;99.90;;;;;;5019036;27;89561;-29
2022/09/10 01:51:49;;;;;;;16.15;14.40;;;15.00;99.90;;;;;;5018884;28;89382;-32
2022/09/10 01:54:49;;;;;;;16.95;12.82;;;15.00;99.90;;;;;;5019382;28;89821;-31
2022/09/10 01:57:26;;;;;;;15.48;13.88;;;15.00;99.90;;;;;;5019285;27;91464;-31
2022/09/10 02:00:10;;;;;;;15.57;13.70;;;15.00;99.90;;;;;;5020040;28;89345;-30
2022/09/10 02:02:39;;;;;;;15.68;14.00;;;15.00;99.90;;;;;;5019311;27;89743;-35
2022/09/10 02:05:06;;;;;;;14.50;12.70;;;15.00;99.90;;;;;;5019826;27;89094;-31
2022/09/10 02:07:34;;;;;;;18.75;13.52;;;15.00;99.90;;;;;;5019127;27;90043;-32
2022/09/10 02:10:02;;;;;;;19.35;14.68;;;15.00;99.90;;;;;;5018137;27;92769;-32
2022/09/10 02:12:28;;;;;;;;;;;15.10;99.90;;;;;;5019650;28;90643;-31
2022/09/10 02:14:55;;;;;;;13.93;12.02;;;15.00;99.90;;;;;;5021952;27;88300;-32
2022/09/10 02:17:32;;;;;;;17.43;13.37;;;15.00;99.90;;;;;;5019441;27;90340;-34
2022/09/10 02:19:58;;;;;;;16.98;12.77;;;15.00;99.90;;;;;;5018519;27;89381;-33
2022/09/10 02:22:24;;;;;;;17.80;13.38;;;15.10;99.90;;;;;;5017164;28;89581;-30
2022/09/10 02:24:50;;;;;;;16.65;13.43;;;15.10;99.90;;;;;;5019267;28;87907;-30
2022/09/10 02:27:16;;;;;;;17.30;14.98;;;15.10;99.90;;;;;;5019263;28;90388;-31
2022/09/10 02:29:42;;;;;;;18.10;15.85;;;15.10;99.90;;;;;;5019156;27;89487;-30
2022/09/10 02:32:08;;;;;;;15.38;12.70;;;15.10;99.90;;;;;;5018994;28;91290;-31
2022/09/10 02:34:35;;;;;;;15.68;14.07;;;15.10;99.90;;;;;;5017492;27;90442;-33
2022/09/10 02:37:02;;;;;;;17.95;15.73;;;15.10;99.90;;;;;;5018852;28;90159;-31
2022/09/10 02:39:28;;;;;;;19.50;14.23;;;15.10;99.90;;;;;;5018528;27;89360;-31
2022/09/10 02:41:54;;;;;;;16.10;14.38;;;15.10;99.90;;;;;;5018357;27;89852;-30
2022/09/10 02:44:20;;;;;;;18.10;15.02;;;15.10;99.90;;;;;;5018745;27;89979;-32
2022/09/10 02:46:46;;;;;;;16.23;13.57;;;15.10;99.90;;;;;;5018590;28;91263;-31
2022/09/10 02:49:12;;;;;;;17.23;14.27;;;15.10;99.90;;;;;;5018484;27;89773;-34
2022/09/10 02:51:38;;;;;;;24.08;15.15;;;15.10;99.90;;;;;;5019639;27;89588;-32
2022/09/10 02:54:04;;;;;;;19.42;15.38;;;15.20;99.90;;;;;;5018134;27;88367;-30
2022/09/10 02:56:30;;;;;;;15.60;13.82;;;15.20;99.90;;;;;;5017293;28;90109;-31
2022/09/10 02:58:55;;;;;;;19.48;14.90;;;15.20;99.90;;;;;;5017995;28;91634;-29
2022/09/10 03:01:21;;;;;;;18.50;13.27;;;15.20;99.90;;;;;;5018855;28;90254;-35
2022/09/10 03:03:53;;;;;;;20.08;14.82;;;15.20;99.90;;;;;;5019147;27;87608;-30
2022/09/10 03:06:20;;;;;;;21.02;14.23;;;15.20;99.90;;;;;;5017695;27;90133;-32
2022/09/10 03:08:47;;;;;;;18.77;15.70;;;15.20;99.90;;;;;;5020596;28;89011;-33
2022/09/10 03:11:15;;;;;;;20.67;15.65;;;15.20;99.90;;;;;;5021468;27;89684;-30
2022/09/10 03:13:45;;;;;;;19.35;13.98;;;15.10;99.90;;;;;;5022629;27;90378;-34
2022/09/10 03:16:14;;;;;;;16.42;14.35;;;15.10;99.90;;;;;;5022047;28;90168;-34
2022/09/10 03:18:40;;;;;;;18.95;14.90;;;15.10;99.90;;;;;;5022159;28;89928;-31
2022/09/10 03:21:08;;;;;;;18.73;16.73;;;15.10;99.90;;;;;;5021977;27;89785;-31
2022/09/10 03:23:34;;;;;;;;;;;15.10;99.90;;;;;;5021936;28;89760;-32
2022/09/10 03:26:00;;;;;;;20.08;14.75;;;15.10;99.90;;;;;;5024145;27;90258;-32
2022/09/10 03:28:25;;;;;;;21.23;15.23;;;15.10;99.90;;;;;;5021936;28;89668;-31
2022/09/10 03:30:51;;;;;;;22.88;16.10;;;15.10;99.90;;;;;;5021461;28;90186;-30
2022/09/10 03:33:20;;;;;;;23.38;14.90;;;15.10;99.90;;;;;;5021505;28;89210;-33
2022/09/10 03:35:47;;;;;;;25.40;16.15;;;15.10;99.90;;;;;;5022232;27;90156;-34
2022/09/10 03:38:13;;;;;;;17.08;14.82;;;15.10;99.90;;;;;;5021365;27;89979;-32
2022/09/10 03:40:39;;;;;;;17.80;15.40;;;15.20;99.90;;;;;;5021909;28;90517;-35
2022/09/10 03:43:04;;;;;;;19.35;14.80;;;15.10;99.90;;;;;;5021830;27;89096;-33
2022/09/10 03:45:30;;;;;;;21.77;15.38;;;15.20;99.90;;;;;;5020558;28;89196;-33
2022/09/10 03:47:56;;;;;;;20.70;16.27;;;15.20;99.90;;;;;;5021501;28;90602;-30
2022/09/10 03:50:22;;;;;;;17.83;15.85;;;15.20;99.90;;;;;;5020888;27;92023;-31
2022/09/10 03:52:47;;;;;;;17.75;14.43;;;15.10;99.90;;;;;;5021418;28;88626;-31
2022/09/10 03:55:13;;;;;;;19.15;15.00;;;15.10;99.90;;;;;;5021636;28;90299;-32
2022/09/10 03:57:40;;;;;;;22.08;15.88;;;15.10;99.90;;;;;;5021101;28;90135;-30
2022/09/10 04:00:08;;;;;;;19.02;15.93;;;15.20;99.90;;;;;;5021663;27;88768;-30
2022/09/10 04:02:33;;;;;;;17.25;14.90;;;15.20;99.90;;;;;;5021449;27;88447;-33
2022/09/10 04:04:59;;;;;;;17.33;13.48;;;15.20;99.90;;;;;;5021092;27;90476;-33
2022/09/10 04:07:25;;;;;;;20.05;14.68;;;15.20;99.90;;;;;;5020977;28;88942;-31
2022/09/10 04:09:50;;;;;;;16.88;14.82;;;15.20;99.90;;;;;;5020864;28;89367;-32
2022/09/10 04:12:16;;;;;;;21.88;15.40;;;15.20;99.90;;;;;;5020497;27;90180;-32
2022/09/10 04:14:44;;;;;;;18.58;16.63;;;15.20;99.90;;;;;;5020860;28;90495;-30
2022/09/10 04:17:11;;;;;;;19.70;15.13;;;15.20;99.90;;;;;;5021606;27;90328;-33
2022/09/10 04:19:39;;;;;;;17.73;13.43;;;15.20;99.90;;;;;;5020717;27;89551;-31
2022/09/10 04:22:04;;;;;;;20.53;16.63;;;15.20;99.90;;;;;;5021150;27;87695;-32
2022/09/10 04:24:30;;;;;;;18.67;14.15;;;15.20;99.90;;;;;;5021164;28;90158;-33
2022/09/10 04:26:56;;;;;;;19.42;16.05;;;15.20;99.90;;;;;;5020418;28;90043;-34
2022/09/10 04:29:22;;;;;;;20.25;15.55;;;15.20;99.90;;;;;;5020156;28;89683;-33
2022/09/10 04:31:49;;;;;;;21.67;15.70;;;15.20;99.90;;;;;;5020658;28;87691;-33
2022/09/10 04:34:15;;;;;;;24.50;17.35;;;15.30;99.90;;;;;;5020229;28;90804;-29
2022/09/10 04:36:41;;;;;;;20.98;16.67;;;15.30;99.90;;;;;;5019579;28;90655;-31
2022/09/10 04:39:06;;;;;;;22.27;16.17;;;15.30;99.90;;;;;;5020759;28;90798;-30
2022/09/10 04:41:32;;;;;;;20.85;14.98;;;15.30;99.90;;;;;;5020979;28;88976;-30
2022/09/10 04:43:57;;;;;;;20.02;17.00;;;15.30;99.90;;;;;;5020278;28;90235;-31
2022/09/10 04:46:23;;;;;;;25.27;16.70;;;15.30;99.90;;;;;;5020478;28;90226;-34
2022/09/10 04:48:49;;;;;;;21.60;17.10;;;15.30;99.90;;;;;;5020304;28;91662;-31
2022/09/10 04:51:16;;;;;;;22.58;17.40;;;15.30;99.90;;;;;;5020208;27;88130;-30
2022/09/10 04:53:41;;;;;;;21.08;15.63;;;15.30;99.90;;;;;;5021698;28;90288;-32
2022/09/10 04:56:07;;;;;;;28.80;17.17;;;15.30;99.90;;;;;;5018758;28;89382;-30
2022/09/10 04:58:33;;;;;;;26.88;18.90;;;15.30;99.90;;;;;;5019333;28;89209;-30
2022/09/10 05:00:58;;;;;;;37.30;18.80;;;15.30;99.90;;;;;;5019918;28;90151;-29
2022/09/10 05:03:24;;;;;;;21.98;16.45;;;15.30;99.90;;;;;;5019985;28;90499;-32
2022/09/10 05:05:50;;;;;;;23.05;16.70;;;15.30;99.90;;;;;;5020742;28;90307;-30
2022/09/10 05:08:16;;;;;;;26.70;17.50;;;15.30;99.90;;;;;;5019505;28;89629;-29
2022/09/10 05:10:41;;;;;;;22.35;18.45;;;15.40;99.90;;;;;;5020340;27;88607;-30
2022/09/10 05:13:07;;;;;;;22.52;16.67;;;15.30;99.90;;;;;;5020200;28;90325;-30
2022/09/10 05:15:34;;;;;;;22.92;17.25;;;15.40;99.90;;;;;;5019528;28;88887;-33
2022/09/10 05:18:00;;;;;;;23.02;18.60;;;15.30;99.90;;;;;;5020500;27;89587;-29
2022/09/10 05:20:26;;;;;;;20.63;16.00;;;15.40;99.90;;;;;;5019978;27;89192;-31
2022/09/10 05:22:55;;;;;;;24.38;17.92;;;15.30;99.90;;;;;;5019603;27;90269;-30
2022/09/10 05:25:21;;;;;;;24.38;18.23;;;15.40;99.90;;;;;;5019610;28;90857;-33
2022/09/10 05:27:48;;;;;;;22.52;17.10;;;15.40;99.90;;;;;;5020166;28;90710;-30
2022/09/10 05:30:14;;;;;;;25.13;18.58;;;15.40;99.90;;;;;;5018685;28;88655;-32
2022/09/10 05:32:39;;;;;;;26.77;18.38;;;15.40;99.90;;;;;;5019964;28;90283;-31
2022/09/10 05:35:09;;;;;;;20.10;16.83;;;15.40;99.90;;;;;;5019351;28;91398;-33
2022/09/10 05:37:34;;;;;;;33.45;18.23;;;15.40;99.90;;;;;;5018884;27;89755;-31
2022/09/10 05:40:05;;;;;;;24.45;18.00;;;15.40;99.90;;;;;;5019715;28;89202;-32
2022/09/10 05:42:30;;;;;;;24.58;18.95;;;15.40;99.90;;;;;;5019448;27;90202;-34
2022/09/10 05:44:56;;;;;;;24.98;18.42;;;15.40;99.90;;;;;;5020176;28;89553;-31
2022/09/10 05:47:21;;;;;;;28.50;19.90;;;15.30;99.90;;;;;;5018489;28;89848;-29
2022/09/10 05:49:48;;;;;;;24.77;19.02;;;15.40;99.90;;;;;;5019555;28;90019;-30
2022/09/10 05:52:14;;;;;;;26.48;20.17;;;15.40;99.90;;;;;;5018934;27;91554;-32
2022/09/10 05:54:40;;;;;;;26.02;20.08;;;15.40;99.90;;;;;;5019787;28;89261;-32
2022/09/10 05:57:06;;;;;;;27.45;19.02;;;15.40;99.90;;;;;;5018459;28;90241;-30
2022/09/10 05:59:33;;;;;;;22.42;19.70;;;15.40;99.90;;;;;;5019365;27;89527;-29
2022/09/10 06:01:59;;;;;;;28.50;21.10;;;15.40;99.90;;;;;;5019771;27;89288;-30
2022/09/10 06:04:25;;;;;;;28.38;19.42;;;15.40;99.90;;;;;;5019393;27;89637;-31
2022/09/10 06:06:52;;;;;;;31.25;19.95;;;15.40;99.90;;;;;;5019531;27;90618;-30
2022/09/10 06:09:18;;;;;;;28.80;21.63;;;15.40;99.90;;;;;;5019468;27;89413;-29
2022/09/10 06:11:46;;;;;;;34.05;23.23;;;15.50;99.90;;;;;;5019635;28;90195;-30
2022/09/10 06:14:13;;;;;;;27.45;21.00;;;15.50;99.90;;;;;;5018586;27;92864;-32
2022/09/10 06:16:39;;;;;;;25.88;20.67;;;15.40;99.90;;;;;;5018666;28;90603;-30
2022/09/10 06:19:05;;;;;;;29.20;22.60;;;15.50;99.90;;;;;;5019930;27;89383;-31
2022/09/10 06:21:31;;;;;;;27.52;22.67;;;15.50;99.90;;;;;;5018709;28;90597;-30
2022/09/10 06:23:56;;;;;;;25.90;21.35;;;15.50;99.90;;;;;;5019950;27;89776;-34
2022/09/10 06:26:22;;;;;;;29.95;21.95;;;15.50;99.90;;;;;;5018796;28;90046;-34
2022/09/10 06:28:52;;;;;;;26.65;21.75;;;15.40;99.90;;;;;;5018726;28;88240;-33
2022/09/10 06:31:18;;;;;;;32.40;22.77;;;15.40;99.90;;;;;;5018380;27;90220;-33
2022/09/10 06:33:47;;;;;;;31.23;22.02;;;15.40;99.90;;;;;;5019443;27;90050;-29
2022/09/10 06:36:13;;;;;;;37.83;23.92;;;15.40;99.90;;;;;;5018897;27;89358;-31
2022/09/10 06:38:39;;;;;;;30.65;22.42;;;15.40;99.90;;;;;;5018289;27;89411;-32
2022/09/10 06:41:10;;;;;;;32.92;23.55;;;15.40;99.90;;;;;;5018726;27;90368;-34
2022/09/10 06:43:38;;;;;;;31.23;23.65;;;15.40;99.90;;;;;;5018712;27;89008;-33
2022/09/10 06:46:12;;;;;;;28.05;20.33;;;15.40;99.90;;;;;;5018240;28;90252;-35
2022/09/10 06:48:39;;;;;;;31.48;20.00;;;15.50;99.90;;;;;;5019205;27;89136;-32
2022/09/10 06:51:07;;;;;;;29.02;20.73;;;15.50;99.90;;;;;;5019044;28;90344;-33
2022/09/10 06:53:33;;;;;;;35.55;22.05;;;15.50;99.90;;;;;;5019177;28;89187;-30
2022/09/10 06:56:04;;;;;;;43.83;22.77;;;15.50;99.90;;;;;;5018393;27;90476;-30
2022/09/10 06:58:33;;;;;;;34.20;23.40;;;15.50;99.90;;;;;;5019062;28;89600;-33
2022/09/10 07:01:06;;;;;;;30.38;21.00;;;15.50;99.90;;;;;;5018652;27;90262;-29
2022/09/10 07:03:32;;;;;;;32.30;24.80;;;15.60;99.90;;;;;;5008401;28;90281;-31
2022/09/10 07:06:06;;;;;;;30.17;21.45;;;15.60;99.90;;;;;;5018463;28;90804;-33
2022/09/10 07:08:32;;;;;;;33.80;23.77;;;15.60;99.90;;;;;;5018314;27;89071;-30
2022/09/10 07:11:03;;;;;;;38.45;20.25;;;15.60;99.90;;;;;;5018633;28;90015;-33
2022/09/10 07:13:33;;;;;;;32.60;22.70;;;15.60;99.90;;;;;;5018381;28;90045;-33
2022/09/10 07:15:59;;;;;;;29.65;21.10;;;15.60;99.90;;;;;;5017960;27;89940;-30
2022/09/10 07:18:26;;;;;;;25.98;20.20;;;15.70;99.90;;;;;;5018279;27;89392;-30
2022/09/10 07:20:52;;;;;;;32.90;21.70;;;15.60;99.90;;;;;;5009901;27;90045;-30
2022/09/10 07:23:20;;;;;;;31.80;21.75;;;15.60;99.90;;;;;;5002506;28;90471;-32
2022/09/10 07:25:46;;;;;;;;;;;15.70;99.90;;;;;;5000163;28;88875;-31
2022/09/10 07:28:16;;;;;;;27.00;19.25;;;15.70;99.90;;;;;;5017248;28;88461;-31
2022/09/10 07:30:43;;;;;;;28.23;22.13;;;15.70;99.90;;;;;;5018171;27;91184;-30
2022/09/10 07:33:12;;;;;;;29.05;19.98;;;15.70;99.90;;;;;;5017376;27;91151;-30
2022/09/10 07:35:38;;;;;;;29.35;19.38;;;15.80;99.90;;;;;;5018083;27;89737;-34
2022/09/10 07:38:05;;;;;;;29.17;20.25;;;15.80;99.90;;;;;;5017982;27;87565;-30
2022/09/10 07:40:32;;;;;;;31.20;18.90;;;15.80;99.90;;;;;;5017137;27;88879;-30
2022/09/10 07:42:58;;;;;;;23.48;19.92;;;15.80;99.90;;;;;;5016945;27;89911;-33
2022/09/10 07:45:25;;;;;;;32.25;20.13;;;15.90;99.90;;;;;;5016971;28;89304;-30
2022/09/10 07:47:51;;;;;;;33.60;21.15;;;15.90;99.90;;;;;;4998608;28;88211;-30
2022/09/10 07:50:18;;;;;;;27.42;19.73;;;15.90;99.90;;;;;;5005615;28;88862;-32
2022/09/10 07:52:43;;;;;;;34.67;21.02;;;15.90;99.90;;;;;;5017756;27;90649;-30
2022/09/10 07:55:09;;;;;;;27.45;20.83;;;15.90;99.90;;;;;;5018399;28;90533;-29
2022/09/10 07:57:39;;;;;;;27.70;19.65;;;16.00;99.90;;;;;;5013666;28;89439;-32
2022/09/10 08:00:14;;;;;;;29.58;19.92;;;16.00;99.90;;;;;;5021610;27;90167;-31
2022/09/10 08:02:43;;;;;;;30.02;19.73;;;16.00;99.90;;;;;;5020628;27;89965;-30
2022/09/10 08:05:10;;;;;;;27.52;18.80;;;16.00;99.90;;;;;;5020257;27;88927;-31
2022/09/10 08:07:39;;;;;;;28.52;19.33;;;16.00;99.90;;;;;;5020372;27;88512;-29
2022/09/10 08:10:08;;;;;;;31.30;21.85;;;16.00;99.90;;;;;;5020826;27;90163;-31
2022/09/10 08:12:35;;;;;;;32.25;21.65;;;16.10;99.90;;;;;;5020755;27;89079;-35
2022/09/10 08:15:01;;;;;;;32.00;22.70;;;16.20;99.90;;;;;;5021797;28;89901;-29
2022/09/10 08:17:29;;;;;;;30.77;19.13;;;16.30;99.90;;;;;;5019576;27;90179;-30
2022/09/10 08:19:55;;;;;;;24.60;16.90;;;16.40;99.90;;;;;;5020681;27;90253;-34
2022/09/10 08:22:21;;;;;;;27.85;19.38;;;16.50;99.90;;;;;;5020753;27;89695;-31
2022/09/10 08:24:47;;;;;;;26.55;19.08;;;16.60;99.90;;;;;;5020498;28;90024;-30
2022/09/10 08:27:14;;;;;;;26.08;18.55;;;16.80;99.90;;;;;;5020050;27;89426;-33
2022/09/10 08:29:41;;;;;;;26.77;18.97;;;16.90;99.90;;;;;;5020748;27;90564;-33
2022/09/10 08:32:07;;;;;;;25.42;17.70;;;17.00;99.90;;;;;;5020475;27;88653;-32
2022/09/10 08:34:33;;;;;;;25.67;18.23;;;17.00;99.90;;;;;;5019659;28;89615;-32
2022/09/10 08:36:59;;;;;;;21.13;17.08;;;16.90;99.90;;;;;;5020791;27;88797;-30
2022/09/10 08:39:26;;;;;;;22.55;17.73;;;17.00;99.90;;;;;;5019734;27;89988;-29
2022/09/10 08:42:00;;;;;;;26.00;18.05;;;16.90;99.90;;;;;;5019872;27;89847;-33
2022/09/10 08:44:37;;;;;;;22.75;17.60;;;17.00;99.90;;;;;;5020133;27;89890;-29
2022/09/10 08:47:09;;;;;;;24.58;17.63;;;17.10;99.90;;;;;;5019659;28;87868;-30
2022/09/10 08:50:13;;;;;;;23.55;17.00;;;17.10;99.90;;;;;;5019392;28;91004;-31
2022/09/10 08:52:58;;;;;;;20.45;17.73;;;17.20;99.90;;;;;;5019401;27;89675;-33
2022/09/10 08:55:30;;;;;;;23.35;17.63;;;17.20;99.90;;;;;;5020081;27;89793;-30
2022/09/10 08:58:08;;;;;;;22.80;16.38;;;17.30;99.90;;;;;;5018455;27;88724;-31
2022/09/10 09:00:39;;;;;;;22.52;16.92;;;17.30;99.90;;;;;;5002202;28;90230;-30
2022/09/10 09:03:41;;;;;;;26.00;14.73;;;17.30;99.90;;;;;;5002071;28;88334;-32
2022/09/10 09:06:21;;;;;;;21.95;15.82;;;17.20;99.90;;;;;;5000289;27;89780;-34
2022/09/10 09:08:49;;;;;;;22.85;15.43;;;17.30;99.90;;;;;;5002917;28;89335;-31
2022/09/10 09:11:38;;;;;;;22.65;15.57;;;17.30;99.90;;;;;;5017898;28;90336;-31
2022/09/10 09:14:29;;;;;;;18.45;12.95;;;17.20;99.90;;;;;;5020683;27;89831;-31
2022/09/10 09:17:16;;;;;;;17.70;14.10;;;17.20;99.90;;;;;;5020198;27;90129;-31
2022/09/10 09:19:51;;;;;;;17.33;14.17;;;17.20;99.90;;;;;;5017230;27;89782;-31
2022/09/10 09:22:20;;;;;;;22.27;14.63;;;17.30;99.90;;;;;;5019217;28;90613;-33
2022/09/10 09:24:57;;;;;;;15.40;13.00;;;17.30;99.90;;;;;;5019545;27;88672;-30
2022/09/10 09:27:26;;;;;;;20.20;13.57;;;17.40;99.90;;;;;;5018705;27;89971;-32
2022/09/10 09:30:17;;;;;;;17.02;12.15;;;17.30;99.90;;;;;;5020128;27;90098;-30
2022/09/10 09:32:45;;;;;;;22.92;15.80;;;17.40;99.90;;;;;;5011027;28;89138;-30
2022/09/10 09:35:25;;;;;;;17.38;13.82;;;17.40;99.90;;;;;;5018734;27;91011;-33
2022/09/10 09:38:12;;;;;;;22.58;15.48;;;17.40;99.90;;;;;;5018517;27;90212;-31
2022/09/10 09:40:50;;;;;;;15.15;12.05;;;17.50;99.90;;;;;;4972873;28;90311;-33
2022/09/10 09:43:26;;;;;;;13.25;11.85;;;17.60;99.90;;;;;;5018964;27;90295;-30
2022/09/10 09:45:52;;;;;;;18.88;13.18;;;17.60;99.90;;;;;;5019431;28;89724;-30
2022/09/10 09:48:20;;;;;;;14.75;12.25;;;17.70;99.90;;;;;;5018626;27;89127;-31
2022/09/10 09:50:50;;;;;;;13.33;10.73;;;17.80;99.90;;;;;;5019497;27;89306;-33
2022/09/10 09:53:27;;;;;;;15.57;11.18;;;17.80;99.90;;;;;;5018521;27;90415;-32
2022/09/10 09:55:54;;;;;;;19.50;11.82;;;17.90;99.90;;;;;;5019432;28;89800;-33
2022/09/10 09:58:20;;;;;;;13.57;11.82;;;18.00;99.90;;;;;;5019113;27;88832;-30
2022/09/10 10:00:46;;;;;;;14.70;12.35;;;17.90;99.90;;;;;;5018755;28;89383;-30
2022/09/10 10:03:17;;;;;;;13.48;11.32;;;18.00;99.90;;;;;;5018846;28;90358;-31
2022/09/10 10:05:42;;;;;;;13.10;11.05;;;18.10;99.90;;;;;;5019390;27;89846;-33
2022/09/10 10:08:27;;;;;;;16.15;12.27;;;18.10;99.90;;;;;;5019862;28;89796;-31
2022/09/10 10:10:53;;;;;;;16.13;12.15;;;18.10;99.90;;;;;;5019238;27;90533;-31
2022/09/10 10:13:22;;;;;;;17.23;12.02;;;18.20;99.90;;;;;;5019020;28;91038;-31
2022/09/10 10:15:48;;;;;;;14.13;9.77;;;18.20;99.90;;;;;;5019069;27;89520;-33
2022/09/10 10:18:30;;;;;;;12.45;10.93;;;18.30;99.90;;;;;;5019516;27;89045;-32
2022/09/10 10:21:19;;;;;;;9.98;9.05;;;18.40;99.90;;;;;;5019417;28;88349;-31
2022/09/10 10:23:45;;;;;;;12.93;9.88;;;18.60;99.90;;;;;;5020017;27;90264;-31
2022/09/10 10:26:24;;;;;;;10.20;8.45;;;18.70;99.90;;;;;;5018524;27;90796;-31
2022/09/10 10:29:02;;;;;;;10.65;9.35;;;18.80;99.90;;;;;;5019065;28;90661;-32
2022/09/10 10:31:40;;;;;;;9.52;8.63;;;18.90;99.90;;;;;;5019210;27;89336;-33
2022/09/10 10:34:39;;;;;;;12.88;10.00;;;18.90;99.90;;;;;;5019057;27;90070;-30
2022/09/10 10:37:33;;;;;;;9.32;8.43;;;19.00;99.90;;;;;;5018072;28;90178;-33
2022/09/10 10:40:17;;;;;;;12.68;10.15;;;19.10;99.90;;;;;;5019378;27;89635;-31
2022/09/10 10:43:09;;;;;;;8.68;7.55;;;19.10;99.90;;;;;;5018545;28;88561;-33
2022/09/10 10:46:13;;;;;;;13.52;12.20;;;19.10;99.90;;;;;;5019034;28;90282;-33
2022/09/10 10:48:48;;;;;;;13.48;10.98;;;19.20;99.90;;;;;;4976715;28;89985;-31
2022/09/10 10:51:36;;;;;;;11.10;10.00;;;19.30;99.90;;;;;;5017220;28;89941;-30
2022/09/10 10:54:36;;;;;;;17.58;12.57;;;19.30;99.90;;;;;;5018025;27;90462;-36
2022/09/10 10:57:24;;;;;;;12.02;10.82;;;19.20;99.90;;;;;;5002547;28;90789;-33
2022/09/10 11:00:06;;;;;;;16.98;10.93;;;19.30;99.90;;;;;;5017369;28;89621;-31
2022/09/10 11:03:04;;;;;;;12.88;10.75;;;19.20;99.90;;;;;;5021065;27;90289;-30
2022/09/10 11:05:40;;;;;;;18.58;13.55;;;19.10;99.90;;;;;;5004851;28;89907;-32
2022/09/10 11:08:14;;;;;;;10.77;9.68;;;19.20;99.90;;;;;;5013190;27;90168;-32
2022/09/10 11:10:48;;;;;;;11.90;10.65;;;19.20;99.90;;;;;;5016638;28;89814;-33
2022/09/10 11:13:13;;;;;;;11.15;9.57;;;19.30;99.90;;;;;;5017019;27;90390;-30
2022/09/10 11:16:04;;;;;;;11.73;10.02;;;19.20;99.90;;;;;;5018906;27;89190;-31
2022/09/10 11:18:52;;;;;;;11.73;10.32;;;19.20;99.90;;;;;;5015921;27;89704;-31
2022/09/10 11:21:28;;;;;;;18.65;12.23;;;19.20;99.90;;;;;;5016388;28;91009;-32
2022/09/10 11:24:03;;;;;;;12.25;10.95;;;19.40;99.90;;;;;;5017557;27;89998;-33
2022/09/10 11:26:44;;;;;;;13.20;10.63;;;19.40;99.90;;;;;;5016800;27;87920;-30
2022/09/10 11:29:48;;;;;;;11.52;10.30;;;19.40;99.90;;;;;;5015970;27;90285;-30
2022/09/10 11:32:30;;;;;;;12.35;10.27;;;19.40;99.90;;;;;;5020292;27;90152;-32
2022/09/10 11:35:18;;;;;;;11.98;10.57;;;19.30;99.90;;;;;;5020541;28;89641;-31
2022/09/10 11:37:59;;;;;;;12.95;9.68;;;19.30;99.90;;;;;;5017892;28;88767;-31
2022/09/10 11:40:42;;;;;;;10.93;9.82;;;19.30;99.90;;;;;;5021793;28;89001;-33
2022/09/10 11:43:17;;;;;;;14.02;11.15;;;19.30;99.90;;;;;;5020968;28;90010;-32
2022/09/10 11:45:52;;;;;;;11.05;9.82;;;19.30;99.90;;;;;;5020918;28;89611;-31
2022/09/10 11:48:29;;;;;;;21.27;11.35;;;19.40;99.90;;;;;;5020095;27;89888;-30
2022/09/10 11:51:01;;;;;;;15.05;11.13;;;19.50;99.90;;;;;;5021031;27;91376;-32
2022/09/10 11:53:29;;;;;;;16.33;11.73;;;19.60;99.90;;;;;;5020102;27;90774;-33
2022/09/10 11:56:18;;;;;;;14.23;10.93;;;19.60;99.90;;;;;;5020333;28;89389;-34
2022/09/10 11:58:43;;;;;;;13.77;9.10;;;19.60;99.90;;;;;;5020468;27;88318;-33
2022/09/10 12:01:25;;;;;;;10.60;8.88;;;19.60;99.90;;;;;;5021434;28;90168;-33
2022/09/10 12:04:08;;;;;;;11.27;9.15;;;19.70;99.90;;;;;;5021327;28;89375;-31
2022/09/10 12:06:58;;;;;;;12.10;9.77;;;19.70;99.90;;;;;;5021123;27;89494;-34
2022/09/10 12:09:46;;;;;;;11.00;9.98;;;19.80;99.90;;;;;;5021278;28;89492;-34
2022/09/10 12:12:24;;;;;;;13.98;11.82;;;19.80;99.90;;;;;;5020418;27;90271;-36
2022/09/10 12:14:50;;;;;;;9.77;8.77;;;19.80;99.90;;;;;;5019477;28;90932;-35
2022/09/10 12:17:23;;;;;;;12.00;9.13;;;19.80;99.90;;;;;;5018795;28;90435;-33
2022/09/10 12:19:53;;;;;;;12.05;8.98;;;19.90;99.90;;;;;;5019704;28;88857;-32
2022/09/10 12:22:35;;;;;;;9.38;8.48;;;19.80;99.90;;;;;;5017900;28;91724;-34
2022/09/10 12:25:07;;;;;;;8.95;7.80;;;19.80;99.90;;;;;;5020113;27;89827;-33
2022/09/10 12:28:06;;;;;;;12.95;9.73;;;19.80;99.90;;;;;;5020403;27;89942;-34
2022/09/10 12:30:34;;;;;;;10.65;9.43;;;19.80;99.90;;;;;;5014405;27;88810;-32
2022/09/10 12:33:20;;;;;;;11.55;8.07;;;19.80;99.90;;;;;;5020441;27;90318;-33
2022/09/10 12:35:48;;;;;;;12.07;9.50;;;19.90;99.90;;;;;;5007308;27;89656;-33
2022/09/10 12:38:46;;;;;;;11.43;9.30;;;19.90;99.90;;;;;;5054195;22;90023;-30
2022/09/10 12:41:21;;;;;;;13.60;9.13;;;20.00;99.90;;;;;;5008902;28;89659;-33
2022/09/10 12:43:47;;;;;;;9.20;7.38;;;20.00;99.90;;;;;;5020137;28;90322;-32
2022/09/10 12:46:13;;;;;;;10.10;9.00;;;20.00;99.90;;;;;;5020958;27;89646;-29
2022/09/10 12:48:44;;;;;;;13.52;9.98;;;20.10;99.90;;;;;;5020292;28;89438;-31
2022/09/10 12:51:22;;;;;;;12.80;10.30;;;20.10;99.90;;;;;;5020444;28;89673;-31
2022/09/10 12:54:25;;;;;;;11.95;10.07;;;20.10;99.90;;;;;;5019910;28;90291;-30